Hazel Run, Minnesota
Current Conditions -  °F | °C
As of 10:12 AM on Friday 19 Dec 2014 (Local Time) from KGDB Reporting Station
Haze Haze  
Wind Chill: 21°   Ceiling: 1100
Heat Index: 30°   Visibility: 3mi
Dew Point: 28°   Wind: 9mph
Humidity: 91%   Direction: 150°SSE
Pressure: 30.18"   Gusts: NA
Location:  44.7935°N, 95.6178°W
Report Text: KGDB 191612Z AUTO 15008KT 3SM BR OVC011 M01/M02 A3018 RMK AO2 T10121025
Loading
Personal Weather Stations






























Interactive Weather Map New forecast layout! Learn more

10-Day Weather Forecast

Advertisements
Track Severe Weather on mobile